createdAt,value
2023-02-28T00:00:57.615Z,231.58
2023-02-28T00:01:57.735Z,231.38
2023-02-28T00:02:57.686Z,230.02
2023-02-28T00:03:57.631Z,229.44
2023-02-28T00:04:57.612Z,229.02
2023-02-28T00:05:57.605Z,227.64
2023-02-28T00:06:57.609Z,227.36
2023-02-28T00:07:57.617Z,227.86
2023-02-28T00:08:57.640Z,226.64
2023-02-28T00:09:57.612Z,226.01
2023-02-28T00:10:57.621Z,224.74
2023-02-28T00:11:57.628Z,222.64
2023-02-28T00:12:57.626Z,222.2
2023-02-28T00:13:57.641Z,220.26
2023-02-28T00:14:57.644Z,220.8
2023-02-28T00:15:57.622Z,217.93
2023-02-28T00:16:57.662Z,217.23
2023-02-28T00:17:57.626Z,215.31
2023-02-28T00:18:57.669Z,214.59
2023-02-28T00:19:57.629Z,213.41
2023-02-28T00:20:57.694Z,212.95
2023-02-28T00:21:57.640Z,211.59
2023-02-28T00:22:57.647Z,211.56
2023-02-28T00:23:57.665Z,210.67
2023-02-28T00:24:57.642Z,210.41
2023-02-28T00:25:57.646Z,210.67
2023-02-28T00:26:57.646Z,209.49
2023-02-28T00:27:57.650Z,209.08
2023-02-28T00:28:57.666Z,208.57
2023-02-28T00:29:57.658Z,207.53
2023-02-28T00:31:00.502Z,207.8
2023-02-28T00:31:57.698Z,207.79
2023-02-28T00:33:00.698Z,207.72
2023-02-28T00:33:57.676Z,207.78
2023-02-28T00:34:57.658Z,207.55
2023-02-28T00:35:57.686Z,205.67
2023-02-28T00:36:57.656Z,205.95
2023-02-28T00:37:57.657Z,205.72
2023-02-28T00:38:57.689Z,204.56
2023-02-28T00:39:57.668Z,204.03
2023-02-28T00:40:57.666Z,203.36
2023-02-28T00:41:57.659Z,202.2
2023-02-28T00:42:57.665Z,201.69
2023-02-28T00:43:57.695Z,200.99
2023-02-28T00:44:57.671Z,200.6
2023-02-28T00:45:57.790Z,200.62
2023-02-28T00:47:00.682Z,201.01
2023-02-28T00:47:57.688Z,201.25
2023-02-28T00:48:57.693Z,201.24
2023-02-28T00:49:57.679Z,202
2023-02-28T00:50:57.681Z,200.82
2023-02-28T00:51:57.682Z,201.01
2023-02-28T00:52:57.678Z,201.18
2023-02-28T00:53:57.704Z,201.95
2023-02-28T00:54:57.682Z,201.57
2023-02-28T00:55:57.683Z,201.16
2023-02-28T00:56:57.691Z,200.43
2023-02-28T00:57:57.696Z,199.97
2023-02-28T00:58:57.713Z,199.49
2023-02-28T00:59:57.702Z,199.05
2023-02-28T01:00:57.700Z,199.25
2023-02-28T01:01:57.693Z,197.76
2023-02-28T01:03:00.804Z,197.98
2023-02-28T01:03:57.730Z,197.68
2023-02-28T01:04:57.705Z,196.63
2023-02-28T01:05:57.697Z,196.28
2023-02-28T01:06:57.701Z,196.16
2023-02-28T01:07:57.705Z,195.27
2023-02-28T01:08:57.730Z,194.08
2023-02-28T01:09:57.713Z,192.91
2023-02-28T01:10:57.717Z,193.18
2023-02-28T01:11:57.723Z,192.42
2023-02-28T01:12:57.710Z,193
2023-02-28T01:13:58.906Z,193.49
2023-02-28T01:14:57.715Z,193.92
2023-02-28T01:15:57.810Z,193.56
2023-02-28T01:16:57.730Z,194.04
2023-02-28T01:17:57.718Z,194.3
2023-02-28T01:18:57.756Z,193.82
2023-02-28T01:19:57.729Z,194.39
2023-02-28T01:20:57.724Z,193.05
2023-02-28T01:21:57.724Z,193.35
2023-02-28T01:22:57.727Z,192.18
2023-02-28T01:23:57.742Z,192.1
2023-02-28T01:25:00.760Z,191.91
2023-02-28T01:25:57.737Z,192.32
2023-02-28T01:26:57.744Z,191.42
2023-02-28T01:27:57.743Z,192.11
2023-02-28T01:28:57.759Z,191.6
2023-02-28T01:29:57.749Z,191.85
2023-02-28T01:30:57.775Z,192.89
2023-02-28T01:31:57.815Z,193.62
2023-02-28T01:32:57.743Z,192.05
2023-02-28T01:33:57.750Z,192.35
2023-02-28T01:34:57.777Z,192.3
2023-02-28T01:36:00.961Z,191.89
2023-02-28T01:36:57.752Z,192.44
2023-02-28T01:38:02.881Z,192.05
2023-02-28T01:38:57.749Z,191.84
2023-02-28T01:39:57.758Z,191.87
2023-02-28T01:40:57.758Z,192.16
2023-02-28T01:41:57.758Z,191.81
2023-02-28T01:42:57.848Z,192.29
2023-02-28T01:43:57.772Z,192.63
2023-02-28T01:44:57.763Z,193.27
2023-02-28T01:45:57.768Z,192.96
2023-02-28T01:46:57.757Z,192.1
2023-02-28T01:47:57.767Z,192.23
2023-02-28T01:48:57.821Z,191.96
2023-02-28T01:49:57.778Z,192.03
2023-02-28T01:50:57.801Z,191.03
2023-02-28T01:51:57.766Z,190.98
2023-02-28T01:52:57.779Z,191.37
2023-02-28T01:53:57.780Z,190.27
2023-02-28T01:54:57.787Z,190.32
2023-02-28T01:55:57.769Z,190.55
2023-02-28T01:56:57.780Z,191.23
2023-02-28T01:57:57.779Z,191.06
2023-02-28T01:58:57.784Z,190.1
2023-02-28T01:59:57.784Z,189.31
2023-02-28T02:00:57.785Z,189.31
2023-02-28T02:01:57.867Z,189.14
2023-02-28T02:02:57.855Z,189.37
2023-02-28T02:03:57.786Z,188.35
2023-02-28T02:04:57.786Z,187.45
2023-02-28T02:05:57.818Z,186.42
2023-02-28T02:06:57.824Z,185.52
2023-02-28T02:07:57.793Z,184.72
2023-02-28T02:08:57.796Z,183.52
2023-02-28T02:09:57.798Z,183.01
2023-02-28T02:10:57.808Z,182.82
2023-02-28T02:11:57.800Z,182.56
2023-02-28T02:12:57.800Z,181.59
2023-02-28T02:13:57.805Z,180.64
2023-02-28T02:14:57.804Z,180.43
2023-02-28T02:15:57.821Z,180.21
2023-02-28T02:16:57.811Z,179.89
2023-02-28T02:17:57.807Z,179.68
2023-02-28T02:18:57.836Z,180.92
2023-02-28T02:19:57.827Z,180.67
2023-02-28T02:20:57.811Z,181.85
2023-02-28T02:21:57.819Z,182.38
2023-02-28T02:22:57.873Z,182.52
2023-02-28T02:23:57.814Z,182.95
2023-02-28T02:24:57.822Z,183.18
2023-02-28T02:25:57.819Z,183.57
2023-02-28T02:26:57.819Z,183.38
2023-02-28T02:27:57.832Z,183.89
2023-02-28T02:28:57.821Z,183.43
2023-02-28T02:29:57.841Z,181.45
2023-02-28T02:30:57.856Z,183.32
2023-02-28T02:31:57.847Z,181.43
2023-02-28T02:32:57.829Z,181.63
2023-02-28T02:33:57.828Z,181.16
2023-02-28T02:34:57.830Z,180.63
2023-02-28T02:35:57.856Z,180.17
2023-02-28T02:36:57.840Z,179.91
2023-02-28T02:37:57.834Z,180.94
2023-02-28T02:38:57.861Z,180.93
2023-02-28T02:39:57.873Z,181.18
2023-02-28T02:40:57.842Z,181.1
2023-02-28T02:41:57.848Z,181.4
2023-02-28T02:42:57.842Z,181.15
2023-02-28T02:43:57.842Z,181.32
2023-02-28T02:44:57.852Z,179.12
2023-02-28T02:45:57.852Z,179.84
2023-02-28T02:46:57.918Z,178.65
2023-02-28T02:47:57.853Z,177.02
2023-02-28T02:48:57.877Z,176.05
2023-02-28T02:49:57.867Z,174.07
2023-02-28T02:50:57.877Z,175.16
2023-02-28T02:51:57.858Z,173.93
2023-02-28T02:52:57.858Z,174.41
2023-02-28T02:53:57.866Z,174.59
2023-02-28T02:54:57.908Z,174.05
2023-02-28T02:55:57.875Z,172.65
2023-02-28T02:56:57.871Z,172.04
2023-02-28T02:58:00.983Z,171.99
2023-02-28T02:58:57.874Z,171.57
2023-02-28T02:59:57.892Z,171.33
2023-02-28T03:00:57.916Z,170.6
2023-02-28T03:01:57.877Z,170.38
2023-02-28T03:02:57.886Z,169.37
2023-02-28T03:03:57.899Z,168.49
2023-02-28T03:04:57.886Z,167.82
2023-02-28T03:05:57.880Z,168.48
2023-02-28T03:06:57.880Z,168.99
2023-02-28T03:07:57.889Z,168.06
2023-02-28T03:08:57.891Z,167.39
2023-02-28T03:09:57.930Z,167.08
2023-02-28T03:10:57.919Z,167.35
2023-02-28T03:12:00.622Z,168.31
2023-02-28T03:12:57.899Z,167.83
2023-02-28T03:13:57.900Z,167.14
2023-02-28T03:14:57.922Z,167.61
2023-02-28T03:15:57.967Z,167.05
2023-02-28T03:16:57.901Z,166.09
2023-02-28T03:17:57.898Z,165.8
2023-02-28T03:18:57.908Z,164.16
2023-02-28T03:19:57.933Z,164.84
2023-02-28T03:20:57.913Z,164.4
2023-02-28T03:21:57.906Z,164.75
2023-02-28T03:22:57.917Z,164.23
2023-02-28T03:23:57.911Z,164.96
2023-02-28T03:24:57.917Z,165.38
2023-02-28T03:25:57.917Z,166.58
2023-02-28T03:26:57.951Z,167.73
2023-02-28T03:27:57.920Z,168.27
2023-02-28T03:28:57.936Z,168.25
2023-02-28T03:29:58.146Z,168.28
2023-02-28T03:30:57.921Z,168.27
2023-02-28T03:31:58.046Z,167.98
2023-02-28T03:32:57.931Z,167.24
2023-02-28T03:33:57.933Z,167.37
2023-02-28T03:34:57.936Z,166.83
2023-02-28T03:35:57.950Z,168.08
2023-02-28T03:36:57.946Z,167.68
2023-02-28T03:37:57.937Z,166.85
2023-02-28T03:38:57.941Z,167.3
2023-02-28T03:39:57.944Z,167.12
2023-02-28T03:41:01.083Z,167.79
2023-02-28T03:41:57.945Z,168.57
2023-02-28T03:42:57.979Z,168.12
2023-02-28T03:43:57.951Z,167.65
2023-02-28T03:44:57.957Z,168.11
2023-02-28T03:45:57.991Z,168.12
2023-02-28T03:46:57.956Z,168.62
2023-02-28T03:47:57.949Z,169.06
2023-02-28T03:48:57.964Z,168.82
2023-02-28T03:49:57.956Z,168.82
2023-02-28T03:50:57.956Z,168.73
2023-02-28T03:52:01.054Z,168.51
2023-02-28T03:52:57.964Z,168.82
2023-02-28T03:53:57.958Z,169.08
2023-02-28T03:54:57.967Z,169.4
2023-02-28T03:55:57.980Z,169.53
2023-02-28T03:56:57.968Z,171.01
2023-02-28T03:57:57.968Z,171.8
2023-02-28T03:58:57.993Z,172.73
2023-02-28T03:59:57.970Z,173.73
2023-02-28T04:00:57.974Z,173.1
2023-02-28T04:01:58.015Z,171.8
2023-02-28T04:03:00.736Z,171.28
2023-02-28T04:03:57.995Z,170.53
2023-02-28T04:04:57.980Z,170.59
2023-02-28T04:05:57.984Z,168.43
2023-02-28T04:06:57.977Z,168.67
2023-02-28T04:07:57.978Z,168.42
2023-02-28T04:08:57.979Z,168.16
2023-02-28T04:09:57.983Z,168.48
2023-02-28T04:10:57.983Z,169.89
2023-02-28T04:11:57.991Z,169.82
2023-02-28T04:12:57.996Z,169.66
2023-02-28T04:14:00.752Z,170.3
2023-02-28T04:14:58.014Z,169.38
2023-02-28T04:15:58.073Z,169.12
2023-02-28T04:16:58.007Z,168.17
2023-02-28T04:17:58.001Z,166.94
2023-02-28T04:18:58.009Z,165.59
2023-02-28T04:19:58.009Z,166.06
2023-02-28T04:20:58.000Z,165.35
2023-02-28T04:21:58.019Z,164.81
2023-02-28T04:22:58.001Z,164.84
2023-02-28T04:23:58.004Z,166
2023-02-28T04:24:58.006Z,166.78
2023-02-28T04:25:58.015Z,167.57
2023-02-28T04:26:58.019Z,167.75
2023-02-28T04:27:58.034Z,168.17
2023-02-28T04:28:58.015Z,166.76
2023-02-28T04:29:58.021Z,167.5
2023-02-28T04:30:58.048Z,167.69
2023-02-28T04:31:58.090Z,168.2
2023-02-28T04:32:58.032Z,167.96
2023-02-28T04:33:58.022Z,167.21
2023-02-28T04:34:58.029Z,167.74
2023-02-28T04:35:58.037Z,167
2023-02-28T04:37:11.753Z,168.25
2023-02-28T04:37:58.034Z,167.8
2023-02-28T04:38:58.030Z,166.78
2023-02-28T04:39:58.030Z,167.01
2023-02-28T04:40:58.077Z,165.33
2023-02-28T04:41:58.034Z,164.84
2023-02-28T04:42:58.039Z,164.6
2023-02-28T04:43:58.042Z,164.81
2023-02-28T04:44:58.044Z,163.92
2023-02-28T04:45:58.059Z,164.13
2023-02-28T04:46:58.061Z,163.64
2023-02-28T04:47:58.047Z,163.17
2023-02-28T04:48:58.050Z,163.47
2023-02-28T04:49:58.056Z,164.66
2023-02-28T04:50:58.042Z,164.34
2023-02-28T04:51:58.054Z,165.37
2023-02-28T04:52:58.054Z,166.34
2023-02-28T04:53:58.063Z,167.29
2023-02-28T04:54:58.047Z,168.53
2023-02-28T04:55:58.048Z,169.19
2023-02-28T04:56:58.056Z,169.42
2023-02-28T04:57:58.059Z,171.16
2023-02-28T04:58:58.061Z,170.4
2023-02-28T04:59:58.062Z,170.62
2023-02-28T05:00:58.062Z,170.21
2023-02-28T05:01:58.108Z,169.91
2023-02-28T05:02:58.090Z,169.95
2023-02-28T05:03:58.069Z,169.71
2023-02-28T05:04:58.107Z,169.99
2023-02-28T05:05:58.069Z,170.74
2023-02-28T05:06:58.071Z,171.16
2023-02-28T05:07:58.085Z,170.92
2023-02-28T05:08:58.094Z,171.71
2023-02-28T05:09:58.079Z,170.83
2023-02-28T05:10:58.081Z,171.14
2023-02-28T05:11:58.080Z,171.5
2023-02-28T05:12:58.075Z,171.93
2023-02-28T05:13:58.161Z,170.99
2023-02-28T05:14:58.079Z,171.72
2023-02-28T05:15:58.147Z,172.48
2023-02-28T05:16:58.094Z,171.94
2023-02-28T05:17:58.093Z,171.48
2023-02-28T05:18:58.242Z,172.3
2023-02-28T05:20:06.626Z,171.74
2023-02-28T05:20:58.092Z,172.67
2023-02-28T05:21:58.093Z,173.17
2023-02-28T05:22:58.096Z,173.25
2023-02-28T05:23:58.091Z,172.96
2023-02-28T05:25:00.881Z,173.19
2023-02-28T05:25:58.126Z,172.98
2023-02-28T05:26:58.113Z,173.43
2023-02-28T05:27:58.098Z,173.94
2023-02-28T05:28:58.114Z,174.16
2023-02-28T05:29:58.113Z,174.39
2023-02-28T05:30:58.124Z,174.17
2023-02-28T05:31:58.215Z,174.91
2023-02-28T05:32:58.107Z,174.67
2023-02-28T05:33:58.131Z,174.94
2023-02-28T05:34:58.130Z,175.2
2023-02-28T05:35:58.171Z,175.08
2023-02-28T05:36:58.113Z,176.2
2023-02-28T05:37:58.371Z,176.41
2023-02-28T05:38:58.115Z,176.12
2023-02-28T05:39:58.123Z,176.86
2023-02-28T05:40:58.144Z,177.34
2023-02-28T05:41:58.121Z,176.85
2023-02-28T05:42:58.174Z,177.58
2023-02-28T05:43:58.125Z,178.02
2023-02-28T05:44:58.165Z,178.97
2023-02-28T05:45:58.205Z,180.44
2023-02-28T05:46:58.132Z,180.7
2023-02-28T05:47:58.134Z,181.66
2023-02-28T05:48:58.210Z,181.21
2023-02-28T05:49:58.130Z,182.18
2023-02-28T05:50:58.195Z,182.55
2023-02-28T05:52:01.161Z,182.86
2023-02-28T05:52:58.151Z,183.14
2023-02-28T05:53:58.152Z,183.54
2023-02-28T05:54:58.158Z,183.67
2023-02-28T05:55:58.199Z,183.54
2023-02-28T05:56:58.318Z,184.06
2023-02-28T05:57:58.150Z,185.08
2023-02-28T05:58:58.173Z,184.49
2023-02-28T05:59:58.159Z,184.24
2023-02-28T06:00:58.189Z,183.87
2023-02-28T06:01:58.199Z,183.15
2023-02-28T06:02:58.161Z,182.39
2023-02-28T06:03:58.168Z,180.99
2023-02-28T06:04:58.161Z,180.79
2023-02-28T06:05:58.185Z,182.35
2023-02-28T06:06:58.190Z,181.02
2023-02-28T06:08:00.916Z,181.84
2023-02-28T06:08:58.179Z,181.8
2023-02-28T06:09:58.189Z,182.35
2023-02-28T06:10:58.186Z,183.76
2023-02-28T06:11:58.177Z,184.27
2023-02-28T06:12:58.177Z,185
2023-02-28T06:13:58.171Z,186.04
2023-02-28T06:14:58.178Z,186.38
2023-02-28T06:15:58.202Z,187.37
2023-02-28T06:16:59.195Z,187.83
2023-02-28T06:17:58.184Z,188.52
2023-02-28T06:19:01.191Z,188.81
2023-02-28T06:19:58.204Z,188.7
2023-02-28T06:20:58.234Z,189.75
2023-02-28T06:21:58.231Z,189.92
2023-02-28T06:22:58.219Z,191.57
2023-02-28T06:23:58.189Z,193.49
2023-02-28T06:24:58.194Z,194.23
2023-02-28T06:25:58.223Z,194.54
2023-02-28T06:26:58.195Z,195.9
2023-02-28T06:27:58.202Z,196.87
2023-02-28T06:28:58.199Z,197.89
2023-02-28T06:30:01.327Z,198.28
2023-02-28T06:30:58.305Z,198.85
2023-02-28T06:31:58.243Z,199.07
2023-02-28T06:32:58.222Z,200.72
2023-02-28T06:33:58.233Z,201.96
2023-02-28T06:34:58.209Z,204.34
2023-02-28T06:35:58.264Z,205.06
2023-02-28T06:36:58.224Z,207.16
2023-02-28T06:37:58.214Z,208.9
2023-02-28T06:38:58.247Z,209.35
2023-02-28T06:39:58.220Z,211.21
2023-02-28T06:40:58.251Z,213.41
2023-02-28T06:41:58.495Z,213.65
2023-02-28T06:42:58.235Z,214.35
2023-02-28T06:43:58.229Z,216.19
2023-02-28T06:44:58.225Z,217.39
2023-02-28T06:45:58.284Z,220.78
2023-02-28T06:46:58.233Z,224.92
2023-02-28T06:47:58.230Z,230.02
2023-02-28T06:48:58.237Z,234.72
2023-02-28T06:49:58.268Z,238.91
2023-02-28T06:50:58.262Z,242.83
2023-02-28T06:51:58.238Z,246.97
2023-02-28T06:52:58.237Z,251.4
2023-02-28T06:53:58.268Z,255.19
2023-02-28T06:54:58.282Z,259.99
2023-02-28T06:55:58.260Z,264.5
2023-02-28T06:56:58.264Z,270.46
2023-02-28T06:57:58.244Z,275.72
2023-02-28T06:58:58.249Z,282.28
2023-02-28T06:59:58.308Z,289.04
2023-02-28T07:00:58.284Z,294.83
2023-02-28T07:01:58.299Z,302.7
2023-02-28T07:02:58.252Z,310.73
2023-02-28T07:03:58.255Z,318.37
2023-02-28T07:04:58.342Z,327.55
2023-02-28T07:05:58.288Z,335.08
2023-02-28T07:06:58.264Z,340.64
2023-02-28T07:07:58.260Z,345.51
2023-02-28T07:08:58.257Z,351
2023-02-28T07:09:58.277Z,357.74
2023-02-28T07:10:58.320Z,365.82
2023-02-28T07:11:58.270Z,372.12
2023-02-28T07:12:58.278Z,378.81
2023-02-28T07:13:58.261Z,384.84
2023-02-28T07:14:58.297Z,389.12
2023-02-28T07:15:58.336Z,393.89
2023-02-28T07:16:58.279Z,398.76
2023-02-28T07:17:58.277Z,404.16
2023-02-28T07:18:58.272Z,410.66
2023-02-28T07:19:58.273Z,416.79
2023-02-28T07:20:58.320Z,426.19
2023-02-28T07:21:58.273Z,437.96
2023-02-28T07:22:58.293Z,445.44
2023-02-28T07:23:58.292Z,445.4
2023-02-28T07:24:58.289Z,448.18
2023-02-28T07:25:58.395Z,458.06
2023-02-28T07:26:58.441Z,470.68
2023-02-28T07:27:58.368Z,483.19
2023-02-28T07:28:58.292Z,497.29
2023-02-28T07:29:58.297Z,509.71
2023-02-28T07:30:58.324Z,522.7
2023-02-28T07:31:58.329Z,534.63
2023-02-28T07:32:58.308Z,543.39
2023-02-28T07:33:58.365Z,543.98
2023-02-28T07:34:58.446Z,545.05
2023-02-28T07:35:58.364Z,548.55
2023-02-28T07:36:58.298Z,556.03
2023-02-28T07:37:58.308Z,566.67
2023-02-28T07:38:58.307Z,578.16
2023-02-28T07:39:58.403Z,589.54
2023-02-28T07:41:00.227Z,600.25
2023-02-28T07:41:58.377Z,608.59
2023-02-28T07:42:58.338Z,618.85
2023-02-28T07:43:58.320Z,628.72
2023-02-28T07:44:58.330Z,639.65
2023-02-28T07:45:58.340Z,648.94
2023-02-28T07:46:58.328Z,656.14
2023-02-28T07:47:58.322Z,662.5
2023-02-28T07:48:58.333Z,666.16
2023-02-28T07:49:58.345Z,671
2023-02-28T07:50:58.350Z,676.15
2023-02-28T07:51:58.386Z,682.68
2023-02-28T07:52:58.399Z,686.77
2023-02-28T07:53:58.353Z,690.71
2023-02-28T07:54:58.354Z,694.03
2023-02-28T07:55:58.426Z,697.55
2023-02-28T07:56:58.345Z,702.61
2023-02-28T07:57:58.424Z,707.59
2023-02-28T07:58:58.464Z,710.03
2023-02-28T07:59:58.459Z,711.74
2023-02-28T08:00:58.584Z,712.54
2023-02-28T08:01:58.440Z,714.05
2023-02-28T08:02:58.352Z,718.32
2023-02-28T08:03:58.358Z,724.05
2023-02-28T08:04:58.382Z,730.03
2023-02-28T08:05:58.372Z,733.92
2023-02-28T08:06:58.360Z,738.31
2023-02-28T08:07:58.356Z,739.13
2023-02-28T08:08:58.354Z,738.72
2023-02-28T08:09:58.364Z,741.6
2023-02-28T08:10:58.387Z,743.53
2023-02-28T08:11:58.369Z,746.68
2023-02-28T08:12:58.396Z,752.21
2023-02-28T08:13:58.422Z,757.97
2023-02-28T08:14:58.409Z,763.92
2023-02-28T08:15:58.448Z,769.54
2023-02-28T08:16:58.379Z,775.01
2023-02-28T08:17:58.367Z,782.16
2023-02-28T08:18:58.365Z,788.66
2023-02-28T08:19:58.396Z,793.89
2023-02-28T08:20:58.406Z,797.16
2023-02-28T08:21:58.375Z,796.85
2023-02-28T08:22:58.498Z,795.87
2023-02-28T08:24:01.421Z,796.09
2023-02-28T08:24:58.389Z,797.21
2023-02-28T08:25:58.398Z,799.9
2023-02-28T08:26:58.382Z,802.6
2023-02-28T08:27:58.375Z,805.78
2023-02-28T08:29:00.346Z,809.8
2023-02-28T08:29:58.405Z,812.63
2023-02-28T08:30:58.433Z,816.12
2023-02-28T08:31:58.474Z,820.03
2023-02-28T08:32:58.410Z,823.91
2023-02-28T08:33:58.389Z,824.65
2023-02-28T08:35:01.257Z,821.93
2023-02-28T08:35:58.479Z,820.47
2023-02-28T08:36:58.459Z,821.5
2023-02-28T08:37:58.389Z,826.22
2023-02-28T08:38:58.407Z,830.55
2023-02-28T08:39:58.397Z,835.8
2023-02-28T08:40:58.426Z,840.66
2023-02-28T08:42:07.098Z,844.56
2023-02-28T08:42:58.393Z,848.76
2023-02-28T08:43:58.401Z,851.62
2023-02-28T08:44:58.401Z,853.53
2023-02-28T08:46:00.221Z,856.76
2023-02-28T08:46:58.440Z,858.58
2023-02-28T08:47:58.409Z,859.34
2023-02-28T08:48:58.403Z,859.39
2023-02-28T08:49:58.408Z,860.88
2023-02-28T08:51:06.584Z,864.13
2023-02-28T08:51:58.424Z,865.94
2023-02-28T08:52:58.412Z,868.84
2023-02-28T08:53:58.408Z,873.04
2023-02-28T08:54:58.407Z,878.02
2023-02-28T08:55:58.409Z,881.94
2023-02-28T08:57:00.121Z,886.36
2023-02-28T08:57:58.415Z,890
2023-02-28T08:58:58.422Z,894.68
2023-02-28T08:59:58.428Z,897.59
2023-02-28T09:00:58.434Z,899.43
2023-02-28T09:01:58.420Z,901.47
2023-02-28T09:02:58.447Z,904.59
2023-02-28T09:03:58.496Z,906.63
2023-02-28T09:04:58.432Z,908.37
2023-02-28T09:05:58.420Z,910.69
2023-02-28T09:06:58.420Z,913.83
2023-02-28T09:08:01.436Z,911.84
2023-02-28T09:08:58.423Z,912.39
2023-02-28T09:09:58.429Z,913.25
2023-02-28T09:10:58.425Z,914.45
2023-02-28T09:11:58.439Z,915.92
2023-02-28T09:12:58.441Z,916.01
2023-02-28T09:13:58.431Z,915.78
2023-02-28T09:14:58.442Z,915.41
2023-02-28T09:15:58.445Z,915.26
2023-02-28T09:16:58.976Z,915.74
2023-02-28T09:17:58.907Z,915.63
2023-02-28T09:19:02.216Z,916.03
2023-02-28T09:19:58.992Z,916.93
2023-02-28T09:20:58.930Z,917.61
2023-02-28T09:21:58.893Z,915.73
2023-02-28T09:22:58.473Z,914.74
2023-02-28T09:23:58.451Z,913.7
2023-02-28T09:24:58.455Z,913.89
2023-02-28T09:25:58.484Z,915.66
2023-02-28T09:27:04.764Z,917.43
2023-02-28T09:27:58.456Z,918.71
2023-02-28T09:28:58.464Z,918.95
2023-02-28T09:29:58.458Z,919.97
2023-02-28T09:30:58.603Z,922.06
2023-02-28T09:31:58.521Z,924.84
2023-02-28T09:32:58.472Z,928.14
2023-02-28T09:33:58.498Z,930.97
2023-02-28T09:34:58.488Z,935.2
2023-02-28T09:35:58.512Z,937.89
2023-02-28T09:36:58.540Z,942.68
2023-02-28T09:37:58.477Z,944.62
2023-02-28T09:38:58.473Z,939.35
2023-02-28T09:39:58.475Z,940.55
2023-02-28T09:40:58.482Z,940.9
2023-02-28T09:41:58.485Z,942.28
2023-02-28T09:42:58.499Z,944.42
2023-02-28T09:43:58.486Z,946
2023-02-28T09:44:58.484Z,948.24
2023-02-28T09:45:58.536Z,950.66
2023-02-28T09:46:58.490Z,952.95
2023-02-28T09:47:58.530Z,954.92
2023-02-28T09:48:58.487Z,957.03
2023-02-28T09:49:58.491Z,959.19
2023-02-28T09:50:58.522Z,961.48
2023-02-28T09:51:58.497Z,962.23
2023-02-28T09:52:58.520Z,963.97
2023-02-28T09:54:01.800Z,967.03
2023-02-28T09:54:58.496Z,968.92
2023-02-28T09:55:58.501Z,969.36
2023-02-28T09:56:58.519Z,969.75
2023-02-28T09:57:58.536Z,968.96
2023-02-28T09:58:58.509Z,969.3
2023-02-28T09:59:58.513Z,971.83
2023-02-28T10:00:58.514Z,976.25
2023-02-28T10:01:58.530Z,981.38
2023-02-28T10:02:58.539Z,986.56
2023-02-28T10:03:58.518Z,991.61
2023-02-28T10:04:58.653Z,995.95
2023-02-28T10:05:58.527Z,999.29
2023-02-28T10:06:58.543Z,1002.58
2023-02-28T10:07:58.568Z,1004.05
2023-02-28T10:08:58.529Z,1005.51
2023-02-28T10:09:58.526Z,1007.46
2023-02-28T10:10:58.538Z,1009.9
2023-02-28T10:11:58.905Z,1011.81
2023-02-28T10:12:58.547Z,1012.85
2023-02-28T10:13:58.530Z,1015
2023-02-28T10:14:58.537Z,1017.9
2023-02-28T10:15:58.592Z,1019
2023-02-28T10:16:58.533Z,1018.62
2023-02-28T10:18:08.323Z,1017.15
2023-02-28T10:18:58.540Z,1012.62
2023-02-28T10:19:58.550Z,1001.46
2023-02-28T10:20:58.564Z,992.34
2023-02-28T10:21:58.559Z,990.28
2023-02-28T10:22:58.590Z,983.17
2023-02-28T10:23:58.545Z,975.73
2023-02-28T10:24:58.551Z,975.33
2023-02-28T10:25:58.560Z,971.9
2023-02-28T10:26:58.546Z,972.09
2023-02-28T10:27:58.577Z,971.94
2023-02-28T10:28:58.551Z,965.35
2023-02-28T10:29:58.562Z,967.01
2023-02-28T10:30:58.596Z,966.65
2023-02-28T10:31:58.568Z,969.95
2023-02-28T10:32:58.645Z,966.18
2023-02-28T10:33:58.566Z,969.2
2023-02-28T10:34:58.566Z,972.25
2023-02-28T10:35:58.586Z,975.31
2023-02-28T10:36:58.569Z,977.97
2023-02-28T10:37:58.605Z,980.3
2023-02-28T10:38:58.618Z,981.82
2023-02-28T10:39:58.579Z,982.68
2023-02-28T10:40:58.588Z,983.56
2023-02-28T10:41:58.580Z,986.41
2023-02-28T10:42:58.598Z,989.32
2023-02-28T10:43:58.583Z,990.31
2023-02-28T10:44:58.587Z,990.53
2023-02-28T10:45:58.645Z,992.03
2023-02-28T10:46:58.588Z,994.44
2023-02-28T10:47:58.612Z,995.96
2023-02-28T10:48:58.589Z,998.34
2023-02-28T10:49:58.589Z,1000.3
2023-02-28T10:50:58.640Z,998.86
2023-02-28T10:51:58.590Z,998.52
2023-02-28T10:52:58.611Z,1000.19
2023-02-28T10:54:02.607Z,1002.48
2023-02-28T10:54:58.618Z,1001.27
2023-02-28T10:55:58.598Z,997.37
2023-02-28T10:56:58.605Z,1000.71
2023-02-28T10:57:58.694Z,1002.19
2023-02-28T10:58:58.613Z,999.74
2023-02-28T10:59:58.609Z,995.72
2023-02-28T11:00:58.603Z,994.14
2023-02-28T11:02:01.417Z,992.11
2023-02-28T11:02:58.634Z,989.66
2023-02-28T11:03:58.612Z,988.05
2023-02-28T11:04:58.650Z,985.9
2023-02-28T11:05:58.610Z,983.58
2023-02-28T11:06:58.613Z,982.61
2023-02-28T11:07:58.668Z,980.94
2023-02-28T11:08:58.613Z,976.15
2023-02-28T11:09:58.618Z,965.02
2023-02-28T11:10:58.672Z,956.62
2023-02-28T11:11:58.617Z,957.52
2023-02-28T11:13:02.164Z,960.86
2023-02-28T11:13:58.621Z,965.09
2023-02-28T11:14:58.629Z,967.76
2023-02-28T11:15:58.731Z,969.86
2023-02-28T11:16:58.625Z,972.36
2023-02-28T11:17:58.679Z,975.39
2023-02-28T11:18:58.633Z,976.57
2023-02-28T11:19:58.648Z,977.36
2023-02-28T11:20:58.631Z,978.66
2023-02-28T11:21:58.641Z,979.52
2023-02-28T11:22:58.698Z,981.08
2023-02-28T11:24:01.566Z,981.25
2023-02-28T11:24:58.639Z,982.71
2023-02-28T11:25:58.644Z,984
2023-02-28T11:26:58.671Z,984.3
2023-02-28T11:27:58.674Z,985.1
2023-02-28T11:28:58.644Z,986.22
2023-02-28T11:29:58.650Z,987.96
2023-02-28T11:30:58.681Z,988.34
2023-02-28T11:31:58.677Z,986.57
2023-02-28T11:32:58.712Z,984.52
2023-02-28T11:33:58.661Z,983.66
2023-02-28T11:35:01.701Z,984.58
2023-02-28T11:35:58.679Z,986.59
2023-02-28T11:36:58.670Z,989.08
2023-02-28T11:37:58.686Z,990.86
2023-02-28T11:38:58.658Z,991.53
2023-02-28T11:39:58.659Z,990.02
2023-02-28T11:40:58.663Z,988.83
2023-02-28T11:41:58.664Z,988.74
2023-02-28T11:42:58.710Z,989.8
2023-02-28T11:43:58.677Z,991.49
2023-02-28T11:44:58.686Z,992.16
2023-02-28T11:46:01.466Z,992.86
2023-02-28T11:46:58.692Z,993.91
2023-02-28T11:47:58.692Z,994.7
2023-02-28T11:48:58.679Z,996.2
2023-02-28T11:49:58.680Z,997.27
2023-02-28T11:50:58.683Z,998.05
2023-02-28T11:51:58.693Z,997
2023-02-28T11:52:58.708Z,993.69
2023-02-28T11:53:58.684Z,990.1
2023-02-28T11:54:58.691Z,988.78
2023-02-28T11:55:58.714Z,988.75
2023-02-28T11:56:58.713Z,988.17
2023-02-28T11:57:58.720Z,988.99
2023-02-28T11:58:58.730Z,990.52
2023-02-28T11:59:58.703Z,991.5
2023-02-28T12:00:58.707Z,993.19
2023-02-28T12:01:58.702Z,994.35
2023-02-28T12:02:58.756Z,995.24
2023-02-28T12:03:58.707Z,995.62
2023-02-28T12:04:58.715Z,995.87
2023-02-28T12:05:58.718Z,996.16
2023-02-28T12:06:58.726Z,996.1
2023-02-28T12:07:58.740Z,995.56
2023-02-28T12:08:58.714Z,995.4
2023-02-28T12:09:58.724Z,994.66
2023-02-28T12:10:58.739Z,992.62
2023-02-28T12:11:58.732Z,990.43
2023-02-28T12:12:58.755Z,988.53
2023-02-28T12:13:58.733Z,987.51
2023-02-28T12:14:58.759Z,987.35
2023-02-28T12:15:58.803Z,987.89
2023-02-28T12:16:58.739Z,988.33
2023-02-28T12:17:58.755Z,987.7
2023-02-28T12:18:58.739Z,985.26
2023-02-28T12:19:58.740Z,981.05
2023-02-28T12:20:58.758Z,978.32
2023-02-28T12:21:58.739Z,978
2023-02-28T12:22:58.784Z,978.22
2023-02-28T12:23:58.744Z,979.06
2023-02-28T12:25:01.501Z,979.75
2023-02-28T12:25:58.752Z,980.09
2023-02-28T12:26:58.756Z,978.46
2023-02-28T12:27:58.777Z,977.22
2023-02-28T12:28:58.760Z,975.98
2023-02-28T12:29:58.755Z,975.75
2023-02-28T12:30:58.785Z,975.6
2023-02-28T12:31:58.841Z,973.24